Hattiesburg Laurel Regional Airport Hattiesburg,Laurel US
ICAO: KPIB
IATA: PIB
Category: Medium
Scheduled Services: Yes

Elevation: 298 ft
TransAlt. 18000 ft.

Airport Communications:
AWOS 3:128.325
HOUSTON CNTR:126.8
CTAF/UNICOM:123

KPIB Zoom In..

If you have problems with the map follow the link
https://www.worldairports.se/pages/airport.php?
ICAO=KPIB

Runways:

(A) RW 18 length 6502 ft width 150 ft
ILS 109.50 / hdg 181

(B) RW 36 length 6502 ft width 150 ft
---- / hdg 1

Location; KPIB
Day. 23 / Time. 14.56 Zulu
* Altimeter: 30.08
* Temperature: 08° c. 46.4°f.
* Wind from: 100° Speed 06 kn.
Dewpoint: 03° c.
Visibility: 10 Statute Miles.
Clouds: Broken 1100 ft.
Clouds: Broken 6500 ft.
Clouds: Overcast 8000 ft.
Conditions: Light Rain.

KPIB 231456Z AUTO 10006KT 10SM -RA BKN011 BKN065 OVC080 08/03 A3008 RMK AO2 SLP187 P0000 60000 T00780028 56004


Wind From 100°
Speed 06 kn.

 
 
jpsmedia worldairports.se 2020   terms of use